sensor_id;sensor_type;location;lat;lon;timestamp;P1;durP1;ratioP1;P2;durP2;ratioP2
61696;SDS011;47610;52.252;20.922;2022-09-09T00:01:09;11.10;;;5.40;;
61696;SDS011;47610;52.252;20.922;2022-09-09T00:04:15;9.20;;;4.80;;
61696;SDS011;47610;52.252;20.922;2022-09-09T00:07:10;9.80;;;4.20;;
61696;SDS011;47610;52.252;20.922;2022-09-09T00:10:05;12.00;;;4.50;;
61696;SDS011;47610;52.252;20.922;2022-09-09T00:13:04;7.90;;;4.90;;
61696;SDS011;47610;52.252;20.922;2022-09-09T00:16:02;9.20;;;5.10;;
61696;SDS011;47610;52.252;20.922;2022-09-09T00:18:57;8.80;;;5.20;;
61696;SDS011;47610;52.252;20.922;2022-09-09T00:21:51;9.00;;;5.30;;
61696;SDS011;47610;52.252;20.922;2022-09-09T00:24:46;10.20;;;5.80;;
61696;SDS011;47610;52.252;20.922;2022-09-09T00:27:37;8.80;;;5.20;;
61696;SDS011;47610;52.252;20.922;2022-09-09T00:30:31;12.80;;;6.20;;
61696;SDS011;47610;52.252;20.922;2022-09-09T00:33:22;12.10;;;5.80;;
61696;SDS011;47610;52.252;20.922;2022-09-09T00:36:13;13.00;;;5.80;;
61696;SDS011;47610;52.252;20.922;2022-09-09T00:39:04;11.30;;;5.70;;
61696;SDS011;47610;52.252;20.922;2022-09-09T00:44:52;8.20;;;5.10;;
61696;SDS011;47610;52.252;20.922;2022-09-09T00:47:46;10.30;;;5.80;;
61696;SDS011;47610;52.252;20.922;2022-09-09T00:50:43;10.00;;;5.60;;
61696;SDS011;47610;52.252;20.922;2022-09-09T00:53:38;18.20;;;6.70;;
61696;SDS011;47610;52.252;20.922;2022-09-09T00:56:44;12.20;;;5.70;;
61696;SDS011;47610;52.252;20.922;2022-09-09T00:59:41;13.00;;;6.20;;
61696;SDS011;47610;52.252;20.922;2022-09-09T01:02:35;14.50;;;6.90;;
61696;SDS011;47610;52.252;20.922;2022-09-09T01:05:35;11.20;;;5.80;;
61696;SDS011;47610;52.252;20.922;2022-09-09T01:08:36;11.40;;;5.70;;
61696;SDS011;47610;52.252;20.922;2022-09-09T01:11:36;12.80;;;5.60;;
61696;SDS011;47610;52.252;20.922;2022-09-09T01:14:32;11.00;;;6.10;;
61696;SDS011;47610;52.252;20.922;2022-09-09T01:17:28;10.30;;;6.20;;
61696;SDS011;47610;52.252;20.922;2022-09-09T01:20:23;12.60;;;6.50;;
61696;SDS011;47610;52.252;20.922;2022-09-09T01:23:19;15.10;;;6.40;;
61696;SDS011;47610;52.252;20.922;2022-09-09T01:26:23;11.40;;;6.30;;
61696;SDS011;47610;52.252;20.922;2022-09-09T01:29:14;14.00;;;7.60;;
61696;SDS011;47610;52.252;20.922;2022-09-09T01:35:27;17.20;;;8.20;;
61696;SDS011;47610;52.252;20.922;2022-09-09T01:38:18;11.60;;;6.60;;
61696;SDS011;47610;52.252;20.922;2022-09-09T01:41:06;13.00;;;6.60;;
61696;SDS011;47610;52.252;20.922;2022-09-09T01:43:53;12.70;;;6.70;;
61696;SDS011;47610;52.252;20.922;2022-09-09T01:46:42;11.20;;;7.00;;
61696;SDS011;47610;52.252;20.922;2022-09-09T01:49:29;11.70;;;6.60;;
61696;SDS011;47610;52.252;20.922;2022-09-09T01:52:17;11.60;;;5.90;;
61696;SDS011;47610;52.252;20.922;2022-09-09T01:55:04;11.90;;;7.00;;
61696;SDS011;47610;52.252;20.922;2022-09-09T01:57:55;11.60;;;7.70;;
61696;SDS011;47610;52.252;20.922;2022-09-09T02:00:56;12.40;;;7.00;;
61696;SDS011;47610;52.252;20.922;2022-09-09T02:03:54;11.30;;;6.40;;
61696;SDS011;47610;52.252;20.922;2022-09-09T02:06:44;12.80;;;7.50;;
61696;SDS011;47610;52.252;20.922;2022-09-09T02:09:33;14.20;;;7.80;;
61696;SDS011;47610;52.252;20.922;2022-09-09T02:12:22;12.10;;;6.70;;
61696;SDS011;47610;52.252;20.922;2022-09-09T02:15:14;13.50;;;7.70;;
61696;SDS011;47610;52.252;20.922;2022-09-09T02:18:09;12.80;;;7.30;;
61696;SDS011;47610;52.252;20.922;2022-09-09T02:20:58;11.80;;;7.60;;
61696;SDS011;47610;52.252;20.922;2022-09-09T02:23:48;13.40;;;6.90;;
61696;SDS011;47610;52.252;20.922;2022-09-09T02:26:39;14.80;;;8.40;;
61696;SDS011;47610;52.252;20.922;2022-09-09T02:29:30;12.30;;;7.60;;
61696;SDS011;47610;52.252;20.922;2022-09-09T02:32:21;15.60;;;8.70;;
61696;SDS011;47610;52.252;20.922;2022-09-09T02:35:10;14.90;;;7.80;;
61696;SDS011;47610;52.252;20.922;2022-09-09T02:38:01;14.20;;;8.30;;
61696;SDS011;47610;52.252;20.922;2022-09-09T02:40:52;16.40;;;8.70;;
61696;SDS011;47610;52.252;20.922;2022-09-09T02:43:40;15.60;;;7.40;;
61696;SDS011;47610;52.252;20.922;2022-09-09T02:46:36;12.90;;;7.50;;
61696;SDS011;47610;52.252;20.922;2022-09-09T02:49:37;13.80;;;7.50;;
61696;SDS011;47610;52.252;20.922;2022-09-09T02:52:35;13.90;;;8.50;;
61696;SDS011;47610;52.252;20.922;2022-09-09T02:55:33;12.80;;;7.10;;
61696;SDS011;47610;52.252;20.922;2022-09-09T02:58:25;15.90;;;8.40;;
61696;SDS011;47610;52.252;20.922;2022-09-09T03:01:13;11.20;;;6.80;;
61696;SDS011;47610;52.252;20.922;2022-09-09T03:04:00;13.50;;;8.00;;
61696;SDS011;47610;52.252;20.922;2022-09-09T03:06:48;12.00;;;7.10;;
61696;SDS011;47610;52.252;20.922;2022-09-09T03:09:36;15.90;;;8.20;;
61696;SDS011;47610;52.252;20.922;2022-09-09T03:12:24;13.10;;;8.20;;
61696;SDS011;47610;52.252;20.922;2022-09-09T03:15:11;16.10;;;9.10;;
61696;SDS011;47610;52.252;20.922;2022-09-09T03:17:58;14.30;;;8.60;;
61696;SDS011;47610;52.252;20.922;2022-09-09T03:20:45;12.60;;;6.00;;
61696;SDS011;47610;52.252;20.922;2022-09-09T03:23:33;13.50;;;7.50;;
61696;SDS011;47610;52.252;20.922;2022-09-09T03:26:19;10.30;;;6.60;;
61696;SDS011;47610;52.252;20.922;2022-09-09T03:29:06;9.80;;;6.70;;
61696;SDS011;47610;52.252;20.922;2022-09-09T03:31:55;9.70;;;7.00;;
61696;SDS011;47610;52.252;20.922;2022-09-09T03:34:42;10.30;;;7.30;;
61696;SDS011;47610;52.252;20.922;2022-09-09T03:37:29;9.40;;;6.10;;
61696;SDS011;47610;52.252;20.922;2022-09-09T03:40:17;11.90;;;6.80;;
61696;SDS011;47610;52.252;20.922;2022-09-09T03:43:04;9.80;;;6.80;;
61696;SDS011;47610;52.252;20.922;2022-09-09T03:45:52;7.30;;;5.60;;
61696;SDS011;47610;52.252;20.922;2022-09-09T03:48:40;10.30;;;7.10;;
61696;SDS011;47610;52.252;20.922;2022-09-09T03:51:26;9.00;;;6.20;;
61696;SDS011;47610;52.252;20.922;2022-09-09T03:54:15;10.40;;;6.10;;
61696;SDS011;47610;52.252;20.922;2022-09-09T03:57:03;10.50;;;6.20;;
61696;SDS011;47610;52.252;20.922;2022-09-09T03:59:50;10.40;;;5.80;;
61696;SDS011;47610;52.252;20.922;2022-09-09T04:02:37;10.30;;;6.50;;
61696;SDS011;47610;52.252;20.922;2022-09-09T04:05:28;11.30;;;5.90;;
61696;SDS011;47610;52.252;20.922;2022-09-09T04:08:14;14.00;;;9.90;;
61696;SDS011;47610;52.252;20.922;2022-09-09T04:11:01;9.60;;;6.30;;
61696;SDS011;47610;52.252;20.922;2022-09-09T04:13:49;10.80;;;6.80;;
61696;SDS011;47610;52.252;20.922;2022-09-09T04:16:36;10.70;;;5.70;;
61696;SDS011;47610;52.252;20.922;2022-09-09T04:19:23;9.60;;;5.70;;
61696;SDS011;47610;52.252;20.922;2022-09-09T04:22:10;10.50;;;6.50;;
61696;SDS011;47610;52.252;20.922;2022-09-09T04:24:57;8.10;;;5.50;;
61696;SDS011;47610;52.252;20.922;2022-09-09T04:27:44;6.90;;;5.10;;
61696;SDS011;47610;52.252;20.922;2022-09-09T04:30:31;11.20;;;5.90;;
61696;SDS011;47610;52.252;20.922;2022-09-09T04:33:19;8.80;;;5.30;;
61696;SDS011;47610;52.252;20.922;2022-09-09T04:36:08;7.30;;;5.00;;
61696;SDS011;47610;52.252;20.922;2022-09-09T04:38:55;7.80;;;5.40;;
61696;SDS011;47610;52.252;20.922;2022-09-09T04:41:44;9.70;;;5.70;;
61696;SDS011;47610;52.252;20.922;2022-09-09T04:44:31;9.10;;;6.10;;
61696;SDS011;47610;52.252;20.922;2022-09-09T04:47:18;10.90;;;6.00;;
61696;SDS011;47610;52.252;20.922;2022-09-09T04:50:06;9.70;;;5.90;;
61696;SDS011;47610;52.252;20.922;2022-09-09T04:52:55;8.00;;;5.40;;
61696;SDS011;47610;52.252;20.922;2022-09-09T04:55:44;8.00;;;5.40;;
61696;SDS011;47610;52.252;20.922;2022-09-09T04:58:31;8.20;;;5.60;;
61696;SDS011;47610;52.252;20.922;2022-09-09T05:01:21;9.10;;;6.00;;
61696;SDS011;47610;52.252;20.922;2022-09-09T05:04:09;8.50;;;5.80;;
61696;SDS011;47610;52.252;20.922;2022-09-09T05:06:56;6.50;;;4.90;;
61696;SDS011;47610;52.252;20.922;2022-09-09T05:09:43;10.80;;;5.80;;
61696;SDS011;47610;52.252;20.922;2022-09-09T05:12:30;17.70;;;12.40;;
61696;SDS011;47610;52.252;20.922;2022-09-09T05:15:17;11.60;;;6.00;;
61696;SDS011;47610;52.252;20.922;2022-09-09T05:18:04;6.40;;;5.20;;
61696;SDS011;47610;52.252;20.922;2022-09-09T05:20:51;8.00;;;5.20;;
61696;SDS011;47610;52.252;20.922;2022-09-09T05:23:44;7.30;;;4.90;;
61696;SDS011;47610;52.252;20.922;2022-09-09T05:26:31;5.90;;;4.60;;
61696;SDS011;47610;52.252;20.922;2022-09-09T05:29:18;7.20;;;5.20;;
61696;SDS011;47610;52.252;20.922;2022-09-09T05:32:05;9.10;;;5.30;;
61696;SDS011;47610;52.252;20.922;2022-09-09T05:34:53;6.70;;;4.90;;
61696;SDS011;47610;52.252;20.922;2022-09-09T05:37:41;7.60;;;4.60;;
61696;SDS011;47610;52.252;20.922;2022-09-09T05:40:28;7.80;;;5.30;;
61696;SDS011;47610;52.252;20.922;2022-09-09T05:43:16;7.50;;;4.90;;
61696;SDS011;47610;52.252;20.922;2022-09-09T05:46:03;7.90;;;4.70;;
61696;SDS011;47610;52.252;20.922;2022-09-09T05:48:51;8.70;;;4.70;;
61696;SDS011;47610;52.252;20.922;2022-09-09T05:51:41;27.50;;;18.30;;
61696;SDS011;47610;52.252;20.922;2022-09-09T05:54:28;12.30;;;8.10;;
61696;SDS011;47610;52.252;20.922;2022-09-09T05:57:15;12.80;;;6.20;;
61696;SDS011;47610;52.252;20.922;2022-09-09T06:00:04;11.70;;;4.90;;
61696;SDS011;47610;52.252;20.922;2022-09-09T06:02:55;7.40;;;4.90;;
61696;SDS011;47610;52.252;20.922;2022-09-09T06:05:42;7.90;;;5.40;;
61696;SDS011;47610;52.252;20.922;2022-09-09T06:08:31;7.50;;;5.20;;
61696;SDS011;47610;52.252;20.922;2022-09-09T06:11:21;5.80;;;4.60;;
61696;SDS011;47610;52.252;20.922;2022-09-09T06:14:08;6.10;;;4.50;;
61696;SDS011;47610;52.252;20.922;2022-09-09T06:16:56;6.30;;;5.00;;
61696;SDS011;47610;52.252;20.922;2022-09-09T06:19:43;7.00;;;4.40;;
61696;SDS011;47610;52.252;20.922;2022-09-09T06:22:29;7.30;;;4.20;;
61696;SDS011;47610;52.252;20.922;2022-09-09T06:25:18;8.60;;;5.20;;
61696;SDS011;47610;52.252;20.922;2022-09-09T06:28:04;8.80;;;4.70;;
61696;SDS011;47610;52.252;20.922;2022-09-09T06:30:57;8.70;;;5.00;;
61696;SDS011;47610;52.252;20.922;2022-09-09T06:33:45;10.30;;;4.70;;
61696;SDS011;47610;52.252;20.922;2022-09-09T06:36:34;8.70;;;5.60;;
61696;SDS011;47610;52.252;20.922;2022-09-09T06:39:23;8.50;;;5.00;;
61696;SDS011;47610;52.252;20.922;2022-09-09T06:42:09;5.90;;;4.30;;
61696;SDS011;47610;52.252;20.922;2022-09-09T06:44:56;13.10;;;9.30;;
61696;SDS011;47610;52.252;20.922;2022-09-09T06:47:44;9.70;;;6.80;;
61696;SDS011;47610;52.252;20.922;2022-09-09T06:50:30;7.70;;;5.70;;
61696;SDS011;47610;52.252;20.922;2022-09-09T06:53:17;6.70;;;4.80;;
61696;SDS011;47610;52.252;20.922;2022-09-09T06:56:17;6.30;;;4.90;;
61696;SDS011;47610;52.252;20.922;2022-09-09T06:59:07;9.30;;;6.40;;
61696;SDS011;47610;52.252;20.922;2022-09-09T07:01:54;8.10;;;5.30;;
61696;SDS011;47610;52.252;20.922;2022-09-09T07:04:41;8.70;;;5.30;;
61696;SDS011;47610;52.252;20.922;2022-09-09T07:07:28;9.20;;;5.20;;
61696;SDS011;47610;52.252;20.922;2022-09-09T07:10:15;8.50;;;6.20;;
61696;SDS011;47610;52.252;20.922;2022-09-09T07:13:02;6.60;;;5.20;;
61696;SDS011;47610;52.252;20.922;2022-09-09T07:15:51;7.80;;;5.40;;
61696;SDS011;47610;52.252;20.922;2022-09-09T07:18:40;8.20;;;5.00;;
61696;SDS011;47610;52.252;20.922;2022-09-09T07:21:27;8.10;;;6.00;;
61696;SDS011;47610;52.252;20.922;2022-09-09T07:24:16;8.20;;;5.90;;
61696;SDS011;47610;52.252;20.922;2022-09-09T07:27:03;7.10;;;5.90;;
61696;SDS011;47610;52.252;20.922;2022-09-09T07:29:50;8.70;;;5.80;;
61696;SDS011;47610;52.252;20.922;2022-09-09T07:32:37;10.30;;;6.30;;
61696;SDS011;47610;52.252;20.922;2022-09-09T07:35:23;8.30;;;5.30;;
61696;SDS011;47610;52.252;20.922;2022-09-09T07:38:10;8.10;;;5.80;;
61696;SDS011;47610;52.252;20.922;2022-09-09T07:41:03;8.70;;;6.30;;
61696;SDS011;47610;52.252;20.922;2022-09-09T07:43:52;7.70;;;6.00;;
61696;SDS011;47610;52.252;20.922;2022-09-09T07:46:41;8.40;;;5.80;;
61696;SDS011;47610;52.252;20.922;2022-09-09T07:49:28;9.10;;;5.70;;
61696;SDS011;47610;52.252;20.922;2022-09-09T07:52:15;7.70;;;6.00;;
61696;SDS011;47610;52.252;20.922;2022-09-09T07:55:03;9.40;;;6.60;;
61696;SDS011;47610;52.252;20.922;2022-09-09T07:57:52;9.70;;;7.00;;
61696;SDS011;47610;52.252;20.922;2022-09-09T08:00:40;20.40;;;12.60;;
61696;SDS011;47610;52.252;20.922;2022-09-09T08:03:27;40.00;;;27.60;;
61696;SDS011;47610;52.252;20.922;2022-09-09T08:06:14;10.00;;;7.90;;
61696;SDS011;47610;52.252;20.922;2022-09-09T08:09:01;13.80;;;8.00;;
61696;SDS011;47610;52.252;20.922;2022-09-09T08:11:48;8.80;;;6.10;;
61696;SDS011;47610;52.252;20.922;2022-09-09T08:14:36;12.60;;;9.00;;
61696;SDS011;47610;52.252;20.922;2022-09-09T08:17:24;12.50;;;7.90;;
61696;SDS011;47610;52.252;20.922;2022-09-09T08:20:11;8.80;;;6.30;;
61696;SDS011;47610;52.252;20.922;2022-09-09T08:22:59;11.70;;;8.30;;
61696;SDS011;47610;52.252;20.922;2022-09-09T08:25:46;11.90;;;8.20;;
61696;SDS011;47610;52.252;20.922;2022-09-09T08:28:33;13.40;;;8.40;;
61696;SDS011;47610;52.252;20.922;2022-09-09T08:31:21;13.70;;;8.90;;
61696;SDS011;47610;52.252;20.922;2022-09-09T08:34:12;11.40;;;7.40;;
61696;SDS011;47610;52.252;20.922;2022-09-09T08:37:00;15.40;;;8.30;;
61696;SDS011;47610;52.252;20.922;2022-09-09T08:39:47;12.70;;;8.10;;
61696;SDS011;47610;52.252;20.922;2022-09-09T08:42:36;12.80;;;8.80;;
61696;SDS011;47610;52.252;20.922;2022-09-09T08:45:27;13.40;;;8.50;;
61696;SDS011;47610;52.252;20.922;2022-09-09T08:48:25;12.30;;;8.30;;
61696;SDS011;47610;52.252;20.922;2022-09-09T08:51:26;16.10;;;9.80;;
61696;SDS011;47610;52.252;20.922;2022-09-09T08:54:15;16.40;;;10.30;;
61696;SDS011;47610;52.252;20.922;2022-09-09T08:57:03;14.90;;;9.00;;
61696;SDS011;47610;52.252;20.922;2022-09-09T09:00:07;15.20;;;9.90;;
61696;SDS011;47610;52.252;20.922;2022-09-09T09:02:59;15.00;;;9.90;;
61696;SDS011;47610;52.252;20.922;2022-09-09T09:05:59;16.70;;;10.30;;
61696;SDS011;47610;52.252;20.922;2022-09-09T09:08:54;20.50;;;10.10;;
61696;SDS011;47610;52.252;20.922;2022-09-09T09:11:47;13.00;;;9.20;;
61696;SDS011;47610;52.252;20.922;2022-09-09T09:14:36;12.60;;;9.20;;
61696;SDS011;47610;52.252;20.922;2022-09-09T09:17:27;18.40;;;9.80;;
61696;SDS011;47610;52.252;20.922;2022-09-09T09:20:18;18.30;;;10.50;;
61696;SDS011;47610;52.252;20.922;2022-09-09T09:23:16;19.00;;;11.10;;
61696;SDS011;47610;52.252;20.922;2022-09-09T09:26:09;14.50;;;9.10;;
61696;SDS011;47610;52.252;20.922;2022-09-09T09:28:56;21.20;;;11.50;;
61696;SDS011;47610;52.252;20.922;2022-09-09T09:31:45;17.20;;;10.90;;
61696;SDS011;47610;52.252;20.922;2022-09-09T09:34:37;14.70;;;10.50;;
61696;SDS011;47610;52.252;20.922;2022-09-09T09:37:25;14.00;;;9.60;;
61696;SDS011;47610;52.252;20.922;2022-09-09T09:40:15;16.70;;;9.50;;
61696;SDS011;47610;52.252;20.922;2022-09-09T09:43:04;18.50;;;10.10;;
61696;SDS011;47610;52.252;20.922;2022-09-09T09:45:51;16.10;;;10.20;;
61696;SDS011;47610;52.252;20.922;2022-09-09T09:48:38;19.20;;;11.60;;
61696;SDS011;47610;52.252;20.922;2022-09-09T09:51:25;25.10;;;15.80;;
61696;SDS011;47610;52.252;20.922;2022-09-09T09:54:18;18.10;;;11.20;;
61696;SDS011;47610;52.252;20.922;2022-09-09T09:57:13;18.90;;;12.40;;
61696;SDS011;47610;52.252;20.922;2022-09-09T10:00:02;23.10;;;12.80;;
61696;SDS011;47610;52.252;20.922;2022-09-09T10:03:00;22.00;;;12.40;;
61696;SDS011;47610;52.252;20.922;2022-09-09T10:05:58;17.90;;;12.00;;
61696;SDS011;47610;52.252;20.922;2022-09-09T10:08:45;20.60;;;11.60;;
61696;SDS011;47610;52.252;20.922;2022-09-09T10:11:37;20.30;;;12.00;;
61696;SDS011;47610;52.252;20.922;2022-09-09T10:14:36;21.10;;;12.60;;
61696;SDS011;47610;52.252;20.922;2022-09-09T10:17:33;25.80;;;12.70;;
61696;SDS011;47610;52.252;20.922;2022-09-09T10:20:32;20.10;;;13.00;;
61696;SDS011;47610;52.252;20.922;2022-09-09T10:23:33;19.40;;;11.60;;
61696;SDS011;47610;52.252;20.922;2022-09-09T10:26:38;21.60;;;12.30;;
61696;SDS011;47610;52.252;20.922;2022-09-09T10:29:34;21.70;;;11.80;;
61696;SDS011;47610;52.252;20.922;2022-09-09T10:32:35;22.20;;;13.10;;
61696;SDS011;47610;52.252;20.922;2022-09-09T10:35:27;19.80;;;11.70;;
61696;SDS011;47610;52.252;20.922;2022-09-09T10:38:18;18.60;;;11.70;;
61696;SDS011;47610;52.252;20.922;2022-09-09T10:41:18;21.00;;;12.50;;
61696;SDS011;47610;52.252;20.922;2022-09-09T10:44:19;21.30;;;13.70;;
61696;SDS011;47610;52.252;20.922;2022-09-09T10:47:42;17.80;;;12.10;;
61696;SDS011;47610;52.252;20.922;2022-09-09T10:50:54;22.10;;;12.90;;
61696;SDS011;47610;52.252;20.922;2022-09-09T10:53:57;22.60;;;12.80;;
61696;SDS011;47610;52.252;20.922;2022-09-09T10:56:57;22.80;;;14.30;;
61696;SDS011;47610;52.252;20.922;2022-09-09T10:59:52;21.00;;;13.30;;
61696;SDS011;47610;52.252;20.922;2022-09-09T11:02:43;28.20;;;13.80;;
61696;SDS011;47610;52.252;20.922;2022-09-09T11:05:34;23.00;;;14.10;;
61696;SDS011;47610;52.252;20.922;2022-09-09T11:08:27;24.90;;;14.70;;
61696;SDS011;47610;52.252;20.922;2022-09-09T11:11:18;23.90;;;14.50;;
61696;SDS011;47610;52.252;20.922;2022-09-09T11:14:13;21.90;;;13.30;;
61696;SDS011;47610;52.252;20.922;2022-09-09T11:17:09;22.40;;;15.20;;
61696;SDS011;47610;52.252;20.922;2022-09-09T11:20:00;26.20;;;15.10;;
61696;SDS011;47610;52.252;20.922;2022-09-09T11:22:50;27.90;;;15.90;;
61696;SDS011;47610;52.252;20.922;2022-09-09T11:25:41;22.80;;;14.60;;
61696;SDS011;47610;52.252;20.922;2022-09-09T11:28:39;28.40;;;15.60;;
61696;SDS011;47610;52.252;20.922;2022-09-09T11:31:43;32.00;;;17.50;;
61696;SDS011;47610;52.252;20.922;2022-09-09T11:34:46;31.00;;;18.10;;
61696;SDS011;47610;52.252;20.922;2022-09-09T11:37:55;28.30;;;16.00;;
61696;SDS011;47610;52.252;20.922;2022-09-09T11:41:00;25.60;;;16.00;;
61696;SDS011;47610;52.252;20.922;2022-09-09T11:43:49;30.30;;;16.80;;
61696;SDS011;47610;52.252;20.922;2022-09-09T11:46:37;30.20;;;17.10;;
61696;SDS011;47610;52.252;20.922;2022-09-09T11:49:27;31.10;;;17.50;;
61696;SDS011;47610;52.252;20.922;2022-09-09T11:52:34;29.80;;;15.80;;
61696;SDS011;47610;52.252;20.922;2022-09-09T11:55:25;33.20;;;15.70;;
61696;SDS011;47610;52.252;20.922;2022-09-09T11:58:16;31.60;;;16.20;;
61696;SDS011;47610;52.252;20.922;2022-09-09T12:01:13;34.40;;;19.30;;
61696;SDS011;47610;52.252;20.922;2022-09-09T12:04:27;28.40;;;15.80;;
61696;SDS011;47610;52.252;20.922;2022-09-09T12:07:26;35.30;;;18.00;;
61696;SDS011;47610;52.252;20.922;2022-09-09T12:10:20;33.30;;;17.10;;
61696;SDS011;47610;52.252;20.922;2022-09-09T12:13:16;30.30;;;16.20;;
61696;SDS011;47610;52.252;20.922;2022-09-09T12:19:15;30.50;;;17.80;;
61696;SDS011;47610;52.252;20.922;2022-09-09T12:22:04;33.80;;;17.40;;
61696;SDS011;47610;52.252;20.922;2022-09-09T12:25:03;29.70;;;16.70;;
61696;SDS011;47610;52.252;20.922;2022-09-09T12:28:05;33.80;;;18.80;;
61696;SDS011;47610;52.252;20.922;2022-09-09T12:30:58;40.60;;;21.50;;
61696;SDS011;47610;52.252;20.922;2022-09-09T12:33:50;35.70;;;18.80;;
61696;SDS011;47610;52.252;20.922;2022-09-09T12:36:37;34.00;;;19.80;;
61696;SDS011;47610;52.252;20.922;2022-09-09T12:39:30;31.00;;;17.70;;
61696;SDS011;47610;52.252;20.922;2022-09-09T12:42:24;36.70;;;19.70;;
61696;SDS011;47610;52.252;20.922;2022-09-09T12:45:17;35.00;;;20.20;;
61696;SDS011;47610;52.252;20.922;2022-09-09T12:48:06;39.10;;;20.00;;
61696;SDS011;47610;52.252;20.922;2022-09-09T12:50:55;43.10;;;20.80;;
61696;SDS011;47610;52.252;20.922;2022-09-09T12:53:42;40.70;;;22.40;;
61696;SDS011;47610;52.252;20.922;2022-09-09T12:56:31;35.20;;;18.80;;
61696;SDS011;47610;52.252;20.922;2022-09-09T12:59:23;33.80;;;18.90;;
61696;SDS011;47610;52.252;20.922;2022-09-09T13:02:16;39.00;;;19.90;;
61696;SDS011;47610;52.252;20.922;2022-09-09T13:05:14;41.50;;;21.80;;
61696;SDS011;47610;52.252;20.922;2022-09-09T13:08:03;42.00;;;26.70;;
61696;SDS011;47610;52.252;20.922;2022-09-09T13:10:52;44.20;;;25.00;;
61696;SDS011;47610;52.252;20.922;2022-09-09T13:13:42;40.70;;;21.10;;
61696;SDS011;47610;52.252;20.922;2022-09-09T13:16:35;43.80;;;22.20;;
61696;SDS011;47610;52.252;20.922;2022-09-09T13:19:22;40.70;;;22.00;;
61696;SDS011;47610;52.252;20.922;2022-09-09T13:22:13;46.50;;;22.20;;
61696;SDS011;47610;52.252;20.922;2022-09-09T13:25:13;36.50;;;19.90;;
61696;SDS011;47610;52.252;20.922;2022-09-09T13:28:05;41.40;;;21.70;;
61696;SDS011;47610;52.252;20.922;2022-09-09T13:31:06;40.60;;;22.70;;
61696;SDS011;47610;52.252;20.922;2022-09-09T13:34:11;43.70;;;22.00;;
61696;SDS011;47610;52.252;20.922;2022-09-09T13:36:59;42.10;;;21.60;;
61696;SDS011;47610;52.252;20.922;2022-09-09T13:39:51;36.80;;;20.30;;
61696;SDS011;47610;52.252;20.922;2022-09-09T13:42:39;37.70;;;20.00;;
61696;SDS011;47610;52.252;20.922;2022-09-09T13:45:27;37.90;;;20.40;;
61696;SDS011;47610;52.252;20.922;2022-09-09T13:48:18;40.30;;;21.70;;
61696;SDS011;47610;52.252;20.922;2022-09-09T13:51:05;37.70;;;20.80;;
61696;SDS011;47610;52.252;20.922;2022-09-09T13:54:06;36.80;;;20.80;;
61696;SDS011;47610;52.252;20.922;2022-09-09T13:56:54;35.80;;;19.70;;
61696;SDS011;47610;52.252;20.922;2022-09-09T13:59:41;47.70;;;20.10;;
61696;SDS011;47610;52.252;20.922;2022-09-09T14:02:27;38.40;;;19.70;;
61696;SDS011;47610;52.252;20.922;2022-09-09T14:05:14;43.20;;;21.30;;
61696;SDS011;47610;52.252;20.922;2022-09-09T14:08:02;37.60;;;20.20;;
61696;SDS011;47610;52.252;20.922;2022-09-09T14:10:50;35.70;;;19.60;;
61696;SDS011;47610;52.252;20.922;2022-09-09T14:13:38;36.80;;;19.90;;
61696;SDS011;47610;52.252;20.922;2022-09-09T14:16:24;36.70;;;18.10;;
61696;SDS011;47610;52.252;20.922;2022-09-09T14:19:11;35.90;;;18.40;;
61696;SDS011;47610;52.252;20.922;2022-09-09T14:21:59;37.90;;;19.30;;
61696;SDS011;47610;52.252;20.922;2022-09-09T14:24:46;42.10;;;19.00;;
61696;SDS011;47610;52.252;20.922;2022-09-09T14:27:33;44.50;;;22.30;;
61696;SDS011;47610;52.252;20.922;2022-09-09T14:30:20;40.80;;;20.70;;
61696;SDS011;47610;52.252;20.922;2022-09-09T14:33:07;38.80;;;20.50;;
61696;SDS011;47610;52.252;20.922;2022-09-09T14:35:56;45.70;;;20.60;;
61696;SDS011;47610;52.252;20.922;2022-09-09T14:38:43;42.40;;;20.70;;
61696;SDS011;47610;52.252;20.922;2022-09-09T14:41:30;46.50;;;19.30;;
61696;SDS011;47610;52.252;20.922;2022-09-09T14:44:16;45.80;;;20.40;;
61696;SDS011;47610;52.252;20.922;2022-09-09T14:47:03;34.20;;;17.00;;
61696;SDS011;47610;52.252;20.922;2022-09-09T14:49:50;35.40;;;16.90;;
61696;SDS011;47610;52.252;20.922;2022-09-09T14:52:37;36.10;;;18.10;;
61696;SDS011;47610;52.252;20.922;2022-09-09T14:55:23;36.80;;;18.00;;
61696;SDS011;47610;52.252;20.922;2022-09-09T14:58:10;40.00;;;20.80;;
61696;SDS011;47610;52.252;20.922;2022-09-09T15:00:57;43.60;;;21.10;;
61696;SDS011;47610;52.252;20.922;2022-09-09T15:03:52;38.40;;;19.50;;
61696;SDS011;47610;52.252;20.922;2022-09-09T15:06:40;39.90;;;20.50;;
61696;SDS011;47610;52.252;20.922;2022-09-09T15:09:27;37.30;;;19.30;;
61696;SDS011;47610;52.252;20.922;2022-09-09T15:12:14;34.30;;;17.40;;
61696;SDS011;47610;52.252;20.922;2022-09-09T15:15:01;28.80;;;15.00;;
61696;SDS011;47610;52.252;20.922;2022-09-09T15:17:49;40.60;;;19.60;;
61696;SDS011;47610;52.252;20.922;2022-09-09T15:20:35;37.30;;;19.30;;
61696;SDS011;47610;52.252;20.922;2022-09-09T15:23:22;39.60;;;19.20;;
61696;SDS011;47610;52.252;20.922;2022-09-09T15:26:09;32.60;;;18.80;;
61696;SDS011;47610;52.252;20.922;2022-09-09T15:28:56;37.40;;;18.70;;
61696;SDS011;47610;52.252;20.922;2022-09-09T15:31:43;45.20;;;20.30;;
61696;SDS011;47610;52.252;20.922;2022-09-09T15:34:30;32.00;;;17.50;;
61696;SDS011;47610;52.252;20.922;2022-09-09T15:37:17;31.50;;;17.40;;
61696;SDS011;47610;52.252;20.922;2022-09-09T15:40:04;39.60;;;18.40;;
61696;SDS011;47610;52.252;20.922;2022-09-09T15:42:52;37.00;;;19.90;;
61696;SDS011;47610;52.252;20.922;2022-09-09T15:45:39;39.10;;;20.00;;
61696;SDS011;47610;52.252;20.922;2022-09-09T15:48:29;34.60;;;18.80;;
61696;SDS011;47610;52.252;20.922;2022-09-09T15:51:17;44.00;;;18.90;;
61696;SDS011;47610;52.252;20.922;2022-09-09T15:54:04;38.50;;;18.80;;
61696;SDS011;47610;52.252;20.922;2022-09-09T15:56:52;34.20;;;18.70;;
61696;SDS011;47610;52.252;20.922;2022-09-09T15:59:39;37.00;;;19.10;;
61696;SDS011;47610;52.252;20.922;2022-09-09T16:02:26;32.30;;;19.90;;
61696;SDS011;47610;52.252;20.922;2022-09-09T16:05:12;36.30;;;19.00;;
61696;SDS011;47610;52.252;20.922;2022-09-09T16:07:59;36.20;;;20.40;;
61696;SDS011;47610;52.252;20.922;2022-09-09T16:10:46;34.90;;;19.30;;
61696;SDS011;47610;52.252;20.922;2022-09-09T16:13:34;45.00;;;26.50;;
61696;SDS011;47610;52.252;20.922;2022-09-09T16:16:22;232.00;;;172.90;;
61696;SDS011;47610;52.252;20.922;2022-09-09T16:19:11;40.60;;;21.30;;
61696;SDS011;47610;52.252;20.922;2022-09-09T16:21:58;36.00;;;20.20;;
61696;SDS011;47610;52.252;20.922;2022-09-09T16:24:45;35.90;;;19.70;;
61696;SDS011;47610;52.252;20.922;2022-09-09T16:27:32;37.70;;;20.60;;
61696;SDS011;47610;52.252;20.922;2022-09-09T16:30:18;30.10;;;17.40;;
61696;SDS011;47610;52.252;20.922;2022-09-09T16:33:05;33.40;;;18.40;;
61696;SDS011;47610;52.252;20.922;2022-09-09T16:35:51;36.10;;;18.80;;
61696;SDS011;47610;52.252;20.922;2022-09-09T16:38:38;33.20;;;18.40;;
61696;SDS011;47610;52.252;20.922;2022-09-09T16:41:25;30.40;;;17.30;;
61696;SDS011;47610;52.252;20.922;2022-09-09T16:44:14;29.10;;;16.80;;